Time;durP1;ratioP1;P1;durP2;ratioP2;P2;SDS_P1;SDS_P2;PMS_P1;PMS_P2;Temp;Humidity;BMP_temperature;BMP_pressure;BME280_temperature;BME280_humidity;BME280_pressure;Samples;Min_cycle;Max_cycle;Signal;HPM_P1;HPM_P2
2022/05/24 00:00:24;;;;;;;4.60;1.30;;;;;;;14.57;47.34;97956.50;105937;1277;24300;-84
2022/05/24 00:03:11;;;;;;;6.40;1.30;;;;;;;14.56;47.45;97955.91;105801;1277;26656;-80
2022/05/24 00:05:49;;;;;;;7.00;1.60;;;;;;;14.53;47.38;97950.30;105790;1278;22597;-87
2022/05/24 00:08:33;;;;;;;4.50;1.40;;;;;;;14.52;47.55;97951.20;105815;1278;25021;-82
2022/05/24 00:11:57;;;;;;;5.10;1.50;;;;;;;14.49;47.53;97939.43;101660;1278;5454678;-82
2022/05/24 00:17:43;;;;;;;5.80;1.60;;;;;;;14.46;47.65;97924.80;105743;1277;24291;-86
2022/05/24 00:20:43;;;;;;;6.40;1.60;;;;;;;14.43;47.81;97922.15;105709;1277;24284;-81
2022/05/24 00:23:42;;;;;;;4.90;1.50;;;;;;;14.41;47.81;97916.38;105925;1277;24264;-82
2022/05/24 00:26:28;;;;;;;6.60;1.80;;;;;;;14.39;47.95;97914.40;105815;1278;24220;-87
2022/05/24 00:29:12;;;;;;;4.90;1.40;;;;;;;14.38;47.86;97906.29;105723;1278;25249;-82
2022/05/24 00:32:18;;;;;;;4.90;1.30;;;;;;;14.39;48.03;97900.40;105746;1277;24216;-83
2022/05/24 00:35:15;;;;;;;;;;;;;;;;;;;;;
2022/05/24 00:38:08;;;;;;;;;;;;;;;;;;;;;
2022/05/24 00:41:38;;;;;;;;;;;;;;;;;;;;;
2022/05/24 00:44:59;;;;;;;;;;;;;;;;;;;;;
2022/05/24 00:48:43;;;;;;;;;;;;;;;;;;;;;
2022/05/24 00:51:47;;;;;;;5.80;1.60;;;;;;;14.35;48.51;97856.90;105894;1276;22707;-86
2022/05/24 00:54:44;;;;;;;5.50;1.70;;;;;;;14.34;48.48;97837.20;105781;1278;22698;-87
2022/05/24 00:58:21;;;;;;;;;;;;;;;;;;;;;
2022/05/24 01:01:16;;;;;;;4.50;1.30;;;;;;;14.31;48.57;97826.73;105852;1276;22547;-87
2022/05/24 01:05:03;;;;;;;5.20;1.40;;;;;;;14.32;48.79;97835.83;105669;1278;22553;-80
2022/05/24 01:07:36;;;;;;;6.10;1.70;;;;;;;14.32;48.88;97860.47;105602;1278;22541;-80
2022/05/24 01:10:36;;;;;;;;;;;;;;;;;;;;;
2022/05/24 01:13:53;;;;;;;5.50;1.60;;;;;;;14.34;48.90;97883.52;105662;1276;25329;-81
2022/05/24 01:16:53;;;;;;;7.30;1.60;;;;;;;14.38;49.11;97888.16;105276;1278;22552;-81
2022/05/24 01:20:09;;;;;;;6.90;1.70;;;;;;;14.38;49.09;97887.49;105604;1276;22708;-80
2022/05/24 01:23:41;;;;;;;;;;;;;;;;;;;;;
2022/05/24 01:27:06;;;;;;;;;;;;;;;;;;;;;
2022/05/24 01:29:47;;;;;;;;;;;;;;;;;;;;;
2022/05/24 01:38:15;;;;;;;4.80;1.90;;;;;;;14.31;49.88;97862.38;105392;1276;22699;-82
2022/05/24 01:41:11;;;;;;;5.20;2.00;;;;;;;14.31;49.90;97869.38;105324;1277;26574;-81
2022/05/24 01:43:52;;;;;;;8.00;1.90;;;;;;;14.30;50.03;97863.92;105570;1278;22561;-82
2022/05/24 01:46:30;;;;;;;7.30;1.90;;;;;;;14.29;50.15;97861.35;105312;1278;25299;-81
2022/05/24 01:49:33;;;;;;;6.90;2.30;;;;;;;14.28;50.13;97858.19;105265;1276;22537;-82
2022/05/24 01:52:25;;;;;;;6.20;1.90;;;;;;;14.27;50.26;97861.88;105557;1276;22570;-81
2022/05/24 01:55:07;;;;;;;6.10;2.20;;;;;;;14.27;50.33;97859.36;105408;1277;22105;-81
2022/05/24 01:58:01;;;;;;;;;;;;;;;;;;;;;
2022/05/24 02:01:29;;;;;;;5.50;1.70;;;;;;;14.31;50.43;97856.07;105665;1276;25361;-81
2022/05/24 02:04:26;;;;;;;6.90;1.90;;;;;;;14.34;50.44;97855.76;105591;1277;22659;-84
2022/05/24 02:07:08;;;;;;;5.90;1.90;;;;;;;14.38;50.56;97858.97;105839;1276;22553;-85
2022/05/24 02:10:11;;;;;;;5.20;1.70;;;;;;;14.39;50.68;97856.92;106035;1276;22549;-82
2022/05/24 02:12:53;;;;;;;7.00;1.90;;;;;;;14.38;50.85;97857.21;105774;1276;25272;-85
2022/05/24 02:15:38;;;;;;;6.60;2.10;;;;;;;14.34;50.85;97856.17;105767;1277;22534;-87
2022/05/24 02:18:26;;;;;;;6.00;2.00;;;;;;;14.30;50.86;97855.45;105775;1276;23388;-81
2022/05/24 02:21:01;;;;;;;6.10;2.00;;;;;;;14.27;51.02;97850.44;105807;1276;22727;-82
2022/05/24 02:23:40;;;;;;;7.20;2.40;;;;;;;14.24;51.05;97850.20;105753;1276;25306;-82
2022/05/24 02:26:31;;;;;;;6.70;1.70;;;;;;;14.23;51.03;97844.41;105872;1276;22695;-83
2022/05/24 02:29:06;;;;;;;6.20;2.10;;;;;;;14.21;51.13;97848.40;105779;1277;22554;-86
2022/05/24 02:31:42;;;;;;;6.70;2.00;;;;;;;14.19;51.19;97842.73;105789;1277;22555;-82
2022/05/24 02:34:40;;;;;;;;;;;;;;;;;;;;;
2022/05/24 02:37:20;;;;;;;6.90;1.60;;;;;;;14.18;51.27;97851.77;105838;1276;24339;-87
2022/05/24 02:43:37;;;;;;;6.70;2.00;;;;;;;14.15;51.58;97839.59;105464;1284;22565;-84
2022/05/24 02:46:25;;;;;;;7.30;2.10;;;;;;;14.13;51.66;97825.85;105069;1286;24270;-83
2022/05/24 02:49:10;;;;;;;5.80;1.80;;;;;;;14.11;51.84;97816.91;105452;1285;24271;-83
2022/05/24 02:51:44;;;;;;;6.40;2.10;;;;;;;14.08;51.92;97803.83;105450;1283;25220;-87
2022/05/24 02:54:21;;;;;;;6.70;2.10;;;;;;;14.06;51.94;97802.19;105410;1284;24578;-84
2022/05/24 02:57:01;;;;;;;6.50;2.10;;;;;;;14.07;52.01;97797.13;105173;1287;22726;-85
2022/05/24 02:59:33;;;;;;;5.80;1.90;;;;;;;14.09;52.09;97790.17;105239;1284;25475;-82
2022/05/24 03:02:04;;;;;;;5.80;2.30;;;;;;;14.10;52.16;97799.86;105100;1284;22566;-85
2022/05/24 03:04:48;;;;;;;8.30;2.30;;;;;;;14.12;52.21;97809.64;105197;1284;22537;-85
2022/05/24 03:10:35;;;;;;;7.00;1.90;;;;;;;14.11;52.41;97829.83;105300;1284;22856;-82
2022/05/24 03:16:58;;;;;;;;;;;;;;;;;;;;;
2022/05/24 03:19:48;;;;;;;7.80;2.20;;;;;;;14.11;52.64;97831.20;105902;1276;22750;-81
2022/05/24 03:22:43;;;;;;;7.40;2.50;;;;;;;14.15;52.76;97832.94;105799;1277;26891;-83
2022/05/24 03:25:15;;;;;;;6.40;2.70;;;;;;;14.17;52.75;97830.25;105789;1276;22520;-84
2022/05/24 03:27:42;;;;;;;6.80;2.30;;;;;;;14.17;52.79;97828.74;105846;1276;24377;-87
2022/05/24 03:30:24;;;;;;;6.10;2.50;;;;;;;14.18;52.77;97826.70;105874;1277;23896;-83
2022/05/24 03:33:04;;;;;;;8.60;2.50;;;;;;;14.20;52.91;97822.19;105732;1277;25232;-82
2022/05/24 03:35:40;;;;;;;8.20;2.50;;;;;;;14.23;53.05;97826.42;105791;1276;22812;-84
2022/05/24 03:38:31;;;;;;;;;;;;;;;;;;;;;
2022/05/24 03:41:34;;;;;;;9.20;2.70;;;;;;;14.33;53.17;97825.11;105705;1277;24246;-87
2022/05/24 03:44:22;;;;;;;8.00;3.10;;;;;;;14.42;53.47;97815.42;105796;1277;22566;-83
2022/05/24 03:47:18;;;;;;;6.90;3.20;;;;;;;14.50;53.63;97813.36;105894;1277;24328;-86
2022/05/24 03:50:01;;;;;;;8.60;3.60;;;;;;;14.54;53.72;97813.63;105761;1277;22826;-85
2022/05/24 03:52:37;;;;;;;10.90;3.80;;;;;;;14.51;53.82;97815.30;105753;1277;22564;-79
2022/05/24 03:55:53;;;;;;;7.80;3.40;;;;;;;14.48;54.14;97811.36;105521;1277;22550;-85
2022/05/24 03:58:22;;;;;;;11.10;4.20;;;;;;;14.40;54.32;97815.83;105761;1277;22562;-84
2022/05/24 04:01:14;;;;;;;7.90;3.60;;;;;;;14.35;54.51;97813.96;105834;1277;23039;-86
2022/05/24 04:03:44;;;;;;;7.90;3.20;;;;;;;14.33;54.51;97814.01;105724;1277;22633;-84
2022/05/24 04:06:34;;;;;;;9.60;2.90;;;;;;;14.33;54.71;97821.15;105756;1276;23891;-81
2022/05/24 04:09:04;;;;;;;7.90;3.00;;;;;;;14.36;54.80;97831.66;105843;1276;24365;-86
2022/05/24 04:11:42;;;;;;;8.20;2.70;;;;;;;14.42;54.83;97843.30;105852;1276;23965;-84
2022/05/24 04:14:13;;;;;;;8.10;2.90;;;;;;;14.52;54.89;97839.45;105763;1276;22499;-82
2022/05/24 04:16:52;;;;;;;8.40;2.90;;;;;;;14.55;55.02;97833.30;105733;1277;25578;-79
2022/05/24 04:19:57;;;;;;;;;;;;;;;;;;;;;
2022/05/24 04:22:55;;;;;;;15.40;3.50;;;;;;;14.63;55.23;97846.17;105730;1277;25315;-81
2022/05/24 04:25:37;;;;;;;12.10;4.20;;;;;;;14.64;55.33;97835.30;105815;1276;25152;-82
2022/05/24 04:28:21;;;;;;;13.30;3.90;;;;;;;14.64;55.42;97827.08;105743;1277;23072;-80
2022/05/24 04:31:04;;;;;;;12.90;3.50;;;;;;;14.66;55.56;97829.63;105753;1277;22561;-83
2022/05/24 04:34:16;;;;;;;;;;;;;;;;;;;;;
2022/05/24 04:37:00;;;;;;;16.20;3.70;;;;;;;14.80;55.84;97839.92;105742;1276;22687;-79
2022/05/24 04:39:41;;;;;;;10.30;2.80;;;;;;;14.90;55.88;97844.43;105518;1276;22556;-78
2022/05/24 04:42:21;;;;;;;9.60;3.50;;;;;;;15.00;56.00;97845.71;105593;1276;24180;-78
2022/05/24 04:44:57;;;;;;;12.90;3.30;;;;;;;15.12;55.98;97844.03;105659;1276;24213;-79
2022/05/24 04:47:39;;;;;;;15.20;3.20;;;;;;;15.25;56.05;97837.01;105615;1276;22554;-83
2022/05/24 04:50:33;;;;;;;13.70;3.40;;;;;;;15.40;55.99;97837.08;105579;1276;22736;-78
2022/05/24 04:53:07;;;;;;;15.60;4.00;;;;;;;15.52;55.99;97839.67;105651;1276;22617;-79
2022/05/24 04:55:58;;;;;;;;;;;;;;;;;;;;;
2022/05/24 04:58:38;;;;;;;9.70;3.40;;;;;;;15.78;55.86;97836.66;105678;1276;22758;-78
2022/05/24 05:01:10;;;;;;;14.00;3.30;;;;;;;15.89;55.87;97836.55;105274;1276;22576;-80
2022/05/24 05:03:43;;;;;;;11.30;3.30;;;;;;;16.03;55.71;97845.08;105600;1277;23180;-76
2022/05/24 05:06:13;;;;;;;14.60;4.90;;;;;;;16.23;55.95;97848.23;105545;1276;22622;-79
2022/05/24 05:08:54;;;;;;;13.10;3.30;;;;;;;16.45;56.03;97845.45;105447;1276;25420;-80
2022/05/24 05:11:24;;;;;;;9.30;2.30;;;;;;;16.65;55.82;97845.80;105470;1276;22728;-78
2022/05/24 05:13:55;;;;;;;7.00;2.70;;;;;;;16.85;55.72;97849.34;105558;1276;24094;-78
2022/05/24 05:16:25;;;;;;;7.80;2.90;;;;;;;17.04;55.74;97845.28;105516;1276;22575;-85
2022/05/24 05:19:00;;;;;;;7.10;2.80;;;;;;;17.18;55.57;97845.77;105858;1276;24201;-78
2022/05/24 05:21:45;;;;;;;8.70;2.50;;;;;;;17.31;55.54;97841.64;105726;1276;22581;-83
2022/05/24 05:24:15;;;;;;;8.60;2.70;;;;;;;17.47;55.53;97845.03;105717;1276;22550;-85
2022/05/24 05:26:42;;;;;;;7.20;2.60;;;;;;;17.56;55.35;97842.81;105696;1276;22536;-78
2022/05/24 05:29:09;;;;;;;8.20;2.50;;;;;;;17.65;55.36;97843.20;105891;1276;22531;-82
2022/05/24 05:31:36;;;;;;;8.30;2.90;;;;;;;17.73;55.35;97840.73;105738;1276;24422;-82
2022/05/24 05:34:03;;;;;;;7.70;2.30;;;;;;;17.82;55.40;97834.11;105720;1276;22535;-80
2022/05/24 05:36:32;;;;;;;9.30;2.80;;;;;;;17.98;55.17;97833.66;105775;1277;24301;-85
2022/05/24 05:39:03;;;;;;;6.80;2.60;;;;;;;18.27;55.19;97837.57;105839;1276;22534;-83
2022/05/24 05:41:33;;;;;;;5.80;2.10;;;;;;;18.56;55.07;97836.01;105688;1276;22703;-85
2022/05/24 05:44:00;;;;;;;7.60;2.50;;;;;;;18.54;54.76;97839.84;105840;1276;25243;-78
2022/05/24 05:46:27;;;;;;;11.00;2.40;;;;;;;18.48;54.89;97847.39;105819;1276;22617;-79
2022/05/24 05:48:55;;;;;;;7.10;2.30;;;;;;;18.63;54.88;97851.94;105677;1278;24212;-85
2022/05/24 05:51:22;;;;;;;9.20;2.50;;;;;;;18.86;54.94;97851.74;105733;1276;25382;-77
2022/05/24 05:53:50;;;;;;;10.20;2.60;;;;;;;19.10;54.88;97857.23;105773;1276;22554;-81
2022/05/24 05:56:27;;;;;;;7.30;2.80;;;;;;;19.49;54.91;97858.02;105759;1276;22499;-78
2022/05/24 05:58:54;;;;;;;6.80;2.20;;;;;;;19.96;54.54;97857.76;105844;1276;23909;-82
2022/05/24 06:01:29;;;;;;;8.40;2.60;;;;;;;20.39;54.63;97857.49;105831;1277;22586;-81
2022/05/24 06:04:00;;;;;;;8.80;2.20;;;;;;;20.84;54.12;97858.84;105866;1277;22540;-81
2022/05/24 06:06:31;;;;;;;8.20;1.90;;;;;;;21.19;53.88;97863.09;105731;1276;24224;-80
2022/05/24 06:08:58;;;;;;;7.40;2.40;;;;;;;21.49;53.63;97853.93;105853;1276;22572;-78
2022/05/24 06:11:25;;;;;;;10.50;2.40;;;;;;;21.72;53.31;97857.39;105736;1277;26485;-76
2022/05/24 06:13:52;;;;;;;6.10;2.20;;;;;;;21.90;53.39;97858.88;105680;1277;22561;-83
2022/05/24 06:16:19;;;;;;;7.40;2.00;;;;;;;22.16;53.31;97855.99;105822;1277;22534;-82
2022/05/24 06:18:48;;;;;;;10.10;2.10;;;;;;;22.41;53.33;97862.05;105810;1277;24432;-76
2022/05/24 06:21:18;;;;;;;8.30;2.30;;;;;;;22.67;53.09;97866.73;105914;1276;24732;-76
2022/05/24 06:23:45;;;;;;;8.20;2.10;;;;;;;22.89;53.22;97868.13;105470;1276;22874;-80
2022/05/24 06:26:17;;;;;;;12.70;2.20;;;;;;;23.21;52.92;97869.45;105515;1276;22603;-80
2022/05/24 06:28:44;;;;;;;5.20;2.20;;;;;;;23.36;52.73;97868.31;105721;1277;24169;-83
2022/05/24 06:31:11;;;;;;;6.20;2.00;;;;;;;23.51;52.79;97868.63;105751;1277;22587;-78
2022/05/24 06:33:38;;;;;;;9.80;2.30;;;;;;;23.78;52.40;97860.49;105863;1276;25369;-79
2022/05/24 06:36:05;;;;;;;7.40;1.90;;;;;;;24.10;52.61;97861.42;105706;1276;24287;-82
2022/05/24 06:38:32;;;;;;;6.90;2.50;;;;;;;24.26;51.97;97864.02;105801;1277;24106;-83
2022/05/24 06:40:59;;;;;;;6.10;2.00;;;;;;;24.11;51.48;97866.83;105857;1276;22540;-81
2022/05/24 06:43:26;;;;;;;5.60;2.10;;;;;;;23.80;51.57;97872.20;105779;1276;22577;-79
2022/05/24 06:45:53;;;;;;;6.50;2.10;;;;;;;23.53;51.70;97880.50;105704;1276;22753;-82
2022/05/24 06:48:21;;;;;;;10.00;2.40;;;;;;;23.44;52.17;97890.00;105826;1276;25255;-80
2022/05/24 06:50:53;;;;;;;7.80;2.20;;;;;;;23.65;52.12;97884.37;105689;1278;24260;-82
2022/05/24 06:53:22;;;;;;;8.30;2.70;;;;;;;23.63;51.87;97888.58;105739;1274;22549;-82
2022/05/24 06:55:55;;;;;;;6.00;2.00;;;;;;;23.76;51.69;97887.59;105695;1277;22531;-85
2022/05/24 06:58:24;;;;;;;7.80;2.30;;;;;;;23.83;51.73;97888.05;105843;1276;25438;-79
2022/05/24 07:03:44;;;;;;;6.60;2.10;;;;;;;23.62;51.76;97893.66;105671;1277;24238;-82
2022/05/24 07:06:19;;;;;;;9.80;2.30;;;;;;;23.54;51.97;97894.71;105764;1276;22560;-82
2022/05/24 07:08:54;;;;;;;7.50;2.20;;;;;;;23.41;51.79;97896.23;105730;1276;24290;-81
2022/05/24 07:11:24;;;;;;;8.00;2.40;;;;;;;23.39;51.65;97898.02;105722;1277;22531;-82
2022/05/24 07:13:51;;;;;;;7.40;2.40;;;;;;;23.50;51.84;97895.66;105745;1277;22542;-85
2022/05/24 07:16:18;;;;;;;9.40;2.00;;;;;;;23.52;51.65;97896.73;105687;1276;22840;-79
2022/05/24 07:18:48;;;;;;;12.10;2.70;;;;;;;23.45;51.78;97895.65;105678;1276;22559;-85
2022/05/24 07:21:16;;;;;;;6.40;2.30;;;;;;;23.45;51.58;97898.50;105772;1276;23908;-78
2022/05/24 07:23:44;;;;;;;8.00;2.40;;;;;;;23.38;51.71;97907.61;105775;1276;25233;-79
2022/05/24 07:26:37;;;;;;;8.40;3.00;;;;;;;23.30;51.62;97904.10;105801;1276;22655;-81
2022/05/24 07:29:06;;;;;;;8.60;2.40;;;;;;;23.16;51.65;97911.98;105864;1277;25293;-85
2022/05/24 07:31:38;;;;;;;6.70;2.40;;;;;;;23.07;51.56;97905.63;105974;1277;24214;-82
2022/05/24 07:34:08;;;;;;;6.20;1.80;;;;;;;23.24;51.66;97902.29;105772;1277;25474;-79
2022/05/24 07:36:48;;;;;;;8.00;2.30;;;;;;;23.58;51.78;97901.26;105980;1277;22567;-79
2022/05/24 07:39:18;;;;;;;6.90;2.20;;;;;;;23.97;51.29;97899.44;105713;1276;24362;-81
2022/05/24 07:47:57;;;;;;;6.80;1.80;;;;;;;23.85;50.93;97897.50;105432;1277;23301;-80
2022/05/24 07:50:37;;;;;;;6.20;2.20;;;;;;;23.83;51.10;97904.32;105762;1276;24769;-80
2022/05/24 07:53:08;;;;;;;7.70;2.60;;;;;;;23.95;51.02;97904.83;105900;1277;24243;-79
2022/05/24 07:55:55;;;;;;;7.50;2.30;;;;;;;24.16;51.02;97901.34;105963;1276;25200;-80
2022/05/24 07:58:22;;;;;;;8.60;2.10;;;;;;;24.34;50.97;97907.58;105911;1276;25325;-80
2022/05/24 08:00:50;;;;;;;10.10;2.30;;;;;;;24.40;50.61;97914.15;105823;1276;22687;-81
2022/05/24 08:03:30;;;;;;;6.00;2.10;;;;;;;24.41;50.60;97918.11;105780;1277;22576;-80
2022/05/24 08:06:21;;;;;;;6.20;2.30;;;;;;;24.42;50.29;97923.94;105966;1276;24125;-79
2022/05/24 08:08:48;;;;;;;7.50;2.30;;;;;;;24.37;50.44;97927.39;105670;1277;25492;-83
2022/05/24 08:11:24;;;;;;;9.60;2.80;;;;;;;24.37;50.13;97929.61;105804;1276;25478;-80
2022/05/24 08:13:54;;;;;;;8.90;2.80;;;;;;;24.36;50.51;97929.03;106042;1276;22540;-81
2022/05/24 08:16:28;;;;;;;9.30;2.40;;;;;;;24.44;50.49;97931.85;105822;1276;22551;-79
2022/05/24 08:19:09;;;;;;;;;;;;;;;;;;;;;
2022/05/24 08:21:39;;;;;;;8.50;2.20;;;;;;;24.62;50.06;97939.27;106087;1276;23917;-79
2022/05/24 08:24:08;;;;;;;5.60;1.90;;;;;;;24.65;50.21;97942.08;105740;1276;22705;-79
2022/05/24 08:26:41;;;;;;;7.40;2.30;;;;;;;24.69;50.20;97942.66;106115;1276;24221;-79
2022/05/24 08:29:40;;;;;;;10.90;2.40;;;;;;;24.75;50.10;97943.98;106097;1276;24177;-80
2022/05/24 08:32:32;;;;;;;11.70;2.70;;;;;;;24.95;49.98;97938.77;105832;1276;25723;-82
2022/05/24 08:35:04;;;;;;;10.60;2.20;;;;;;;25.26;50.06;97943.69;105864;1276;22700;-84
2022/05/24 08:37:48;;;;;;;;;;;;;;;;;;;;;
2022/05/24 08:40:20;;;;;;;6.90;2.20;;;;;;;25.95;49.94;97940.39;105874;1276;25340;-82
2022/05/24 08:43:31;;;;;;;7.30;2.20;;;;;;;26.18;49.68;97942.14;105809;1276;22631;-84
2022/05/24 08:49:21;;;;;;;8.20;2.40;;;;;;;26.29;49.20;97937.77;105863;1276;25354;-80
2022/05/24 08:52:19;;;;;;;7.00;2.00;;;;;;;26.38;49.34;97939.27;105469;1278;24408;-81
2022/05/24 08:55:10;;;;;;;8.80;2.20;;;;;;;26.50;49.07;97940.21;105756;1276;22553;-80
2022/05/24 08:58:07;;;;;;;5.90;1.90;;;;;;;26.38;48.97;97936.98;105858;1277;22603;-80
2022/05/24 09:00:43;;;;;;;7.40;2.10;;;;;;;26.31;48.75;97943.80;105762;1277;23350;-80
2022/05/24 09:03:28;;;;;;;7.80;2.10;;;;;;;26.09;48.61;97945.65;105924;1278;24397;-81
2022/05/24 09:06:46;;;;;;;;;;;;;;;;;;;;;
2022/05/24 09:09:41;;;;;;;7.10;2.50;;;;;;;25.49;49.13;97946.80;105457;1284;25427;-79
2022/05/24 09:12:55;;;;;;;8.90;2.30;;;;;;;25.46;49.05;97948.66;104948;1284;25251;-82
2022/05/24 09:19:33;;;;;;;7.30;2.60;;;;;;;25.62;49.47;97940.71;105461;1284;25964;-80
2022/05/24 09:22:04;;;;;;;8.80;2.90;;;;;;;25.73;49.21;97939.21;105293;1284;23903;-82
2022/05/24 09:25:08;;;;;;;7.10;2.60;;;;;;;25.72;48.91;97945.24;105240;1284;23001;-80
2022/05/24 09:27:59;;;;;;;6.10;2.40;;;;;;;25.82;49.04;97944.93;105399;1284;25262;-80
2022/05/24 09:31:09;;;;;;;;;;;;;;;;;;;;;
2022/05/24 09:33:53;;;;;;;7.70;2.20;;;;;;;25.87;48.36;97951.08;105102;1285;23928;-84
2022/05/24 09:37:09;;;;;;;7.80;2.20;;;;;;;25.94;48.43;97953.43;105116;1285;25331;-80
2022/05/24 09:40:00;;;;;;;6.30;2.20;;;;;;;26.10;48.65;97945.38;105174;1285;24286;-81
2022/05/24 09:42:39;;;;;;;5.20;2.00;;;;;;;26.50;48.86;97945.79;105116;1284;22552;-85
2022/05/24 09:45:23;;;;;;;6.30;2.00;;;;;;;26.71;48.39;97951.35;105145;1286;22547;-81
2022/05/24 09:48:10;;;;;;;9.10;2.30;;;;;;;26.70;48.04;97952.43;105808;1276;22558;-86
2022/05/24 09:50:54;;;;;;;6.40;1.80;;;;;;;26.57;47.96;97962.38;105883;1276;22704;-83
2022/05/24 09:53:30;;;;;;;8.90;2.00;;;;;;;26.40;47.87;97970.75;105708;1276;25352;-79
2022/05/24 09:56:19;;;;;;;8.10;2.10;;;;;;;26.42;47.96;97964.76;105741;1277;22669;-80
2022/05/24 09:58:54;;;;;;;7.30;2.00;;;;;;;26.51;47.93;97972.80;105638;1279;24213;-83
2022/05/24 10:01:54;;;;;;;6.60;2.00;;;;;;;26.63;47.88;97978.56;105521;1276;22599;-84
2022/05/24 10:04:47;;;;;;;6.70;1.90;;;;;;;26.72;47.35;97980.42;105057;1288;22659;-84
2022/05/24 10:07:28;;;;;;;7.90;2.10;;;;;;;26.47;47.07;97984.27;105137;1285;22614;-85
2022/05/24 10:10:23;;;;;;;9.40;2.00;;;;;;;26.32;47.15;97990.59;105178;1284;25319;-82
2022/05/24 10:13:29;;;;;;;8.10;1.90;;;;;;;26.14;47.07;97989.64;105387;1284;24307;-83
2022/05/24 10:16:25;;;;;;;4.90;1.80;;;;;;;26.04;47.06;97996.79;105301;1284;25263;-80
2022/05/24 10:19:23;;;;;;;6.20;2.00;;;;;;;26.04;47.18;97995.73;105553;1284;24280;-81
2022/05/24 10:22:30;;;;;;;6.10;1.90;;;;;;;26.00;46.91;97998.05;105286;1284;22798;-86
2022/05/24 10:25:24;;;;;;;12.80;2.90;;;;;;;26.38;47.68;97997.20;105128;1284;22550;-82
2022/05/24 10:28:10;;;;;;;16.00;3.00;;;;;;;26.97;47.40;97992.86;105415;1284;22869;-81
2022/05/24 10:31:02;;;;;;;8.20;2.20;;;;;;;27.24;46.94;97994.19;105296;1285;24092;-80
2022/05/24 10:40:03;;;;;;;6.80;2.10;;;;;;;26.95;46.20;97986.36;105337;1277;24310;-86
2022/05/24 10:42:59;;;;;;;8.70;2.30;;;;;;;26.97;46.75;97987.91;105676;1276;23988;-75
2022/05/24 10:45:49;;;;;;;9.40;1.90;;;;;;;27.12;46.24;97986.12;105593;1277;22618;-83
2022/05/24 10:48:22;;;;;;;7.70;1.60;;;;;;;27.10;46.29;97982.83;105879;1277;22553;-83
2022/05/24 10:51:05;;;;;;;5.30;1.90;;;;;;;27.17;46.30;97978.80;106000;1276;25905;-80
2022/05/24 10:53:47;;;;;;;8.90;2.00;;;;;;;27.33;46.84;97977.77;106060;1276;25549;-79
2022/05/24 10:56:49;;;;;;;6.80;1.90;;;;;;;27.51;46.36;97979.41;105917;1276;22627;-79
2022/05/24 10:59:29;;;;;;;9.40;2.10;;;;;;;27.54;46.06;97981.06;105871;1277;25174;-85
2022/05/24 11:02:09;;;;;;;6.50;2.10;;;;;;;27.56;46.00;97985.05;105841;1277;22599;-86
2022/05/24 11:04:59;;;;;;;9.90;2.10;;;;;;;27.63;45.86;97987.80;105962;1276;22776;-81
2022/05/24 11:07:40;;;;;;;6.60;1.70;;;;;;;27.52;45.56;97995.44;106031;1276;24232;-79
2022/05/24 11:10:39;;;;;;;11.80;2.00;;;;;;;27.25;45.31;97988.30;105941;1277;22550;-81
2022/05/24 11:13:15;;;;;;;18.50;2.30;;;;;;;27.20;45.61;97991.55;106078;1276;25480;-80
2022/05/24 11:16:00;;;;;;;6.90;2.00;;;;;;;27.33;45.44;97992.27;105791;1277;23063;-81
2022/05/24 11:18:42;;;;;;;9.50;2.00;;;;;;;27.37;45.43;97994.66;105821;1276;25387;-79
2022/05/24 11:21:23;;;;;;;8.50;2.10;;;;;;;27.40;45.26;97999.40;105864;1277;25669;-83
2022/05/24 11:24:05;;;;;;;9.50;2.20;;;;;;;27.41;45.23;98002.91;106023;1276;22738;-80
2022/05/24 11:26:52;;;;;;;7.10;2.00;;;;;;;27.42;45.51;97996.23;106033;1276;24419;-80
2022/05/24 11:29:38;;;;;;;5.90;1.80;;;;;;;27.59;45.43;97992.61;105825;1277;24224;-79
2022/05/24 11:32:11;;;;;;;10.70;2.50;;;;;;;27.95;45.18;97990.66;105874;1276;22618;-84
2022/05/24 11:35:04;;;;;;;17.10;5.60;;;;;;;27.82;44.56;97989.77;106013;1276;22731;-80
2022/05/24 11:37:48;;;;;;;27.90;11.70;;;;;;;27.34;44.76;97989.40;105865;1276;22532;-83
2022/05/24 11:40:55;;;;;;;24.60;9.20;;;;;;;27.10;44.85;97995.27;105698;1277;24272;-81
2022/05/24 11:44:09;;;;;;;27.00;10.20;;;;;;;27.18;44.98;97993.89;105921;1277;22563;-82
2022/05/24 11:46:49;;;;;;;19.70;8.00;;;;;;;27.63;45.36;97990.47;105828;1277;22750;-83
2022/05/24 11:50:02;;;;;;;10.80;3.70;;;;;;;27.96;44.82;97991.00;105912;1276;25559;-84
2022/05/24 11:53:08;;;;;;;11.10;3.70;;;;;;;28.04;44.84;97990.54;105917;1277;22597;-80
2022/05/24 11:55:44;;;;;;;6.50;1.60;;;;;;;28.15;44.38;97993.14;105847;1277;22580;-83
2022/05/24 11:58:56;;;;;;;12.30;2.90;;;;;;;28.08;44.16;97988.92;106031;1276;23310;-83
2022/05/24 12:01:42;;;;;;;8.90;3.50;;;;;;;28.25;44.62;97990.89;105864;1277;22638;-80
2022/05/24 12:11:00;;;;;;;;;;;;;;;;;;;;;
2022/05/24 12:14:25;;;;;;;8.60;2.50;;;;;;;28.71;44.11;97994.31;105998;1276;22594;-79
2022/05/24 12:17:06;;;;;;;7.10;2.30;;;;;;;28.99;43.94;97986.41;105963;1279;22668;-83
2022/05/24 12:19:54;;;;;;;;;;;;;;;;;;;;;
2022/05/24 12:22:58;;;;;;;7.40;2.00;;;;;;;28.74;44.02;97988.57;106086;1276;22537;-81
2022/05/24 12:27:21;;;;;;;5.80;1.70;;;;;;;28.43;44.10;97990.41;105822;1279;23940;-83
2022/05/24 12:29:49;;;;;;;6.90;2.00;;;;;;;27.96;43.67;97993.75;104117;1293;22758;-82
2022/05/24 12:32:44;;;;;;;;;;;;;;;;;;;;;
2022/05/24 12:35:19;;;;;;;9.90;2.40;;;;;;;27.56;43.82;98000.91;104156;1293;25592;-81
2022/05/24 12:38:15;;;;;;;7.30;1.90;;;;;;;27.36;43.78;97998.00;104003;1294;22769;-81
2022/05/24 12:40:49;;;;;;;6.60;1.90;;;;;;;27.23;43.81;98004.80;104257;1293;25135;-83
2022/05/24 12:43:35;;;;;;;10.90;2.40;;;;;;;27.06;43.79;98008.49;104330;1293;22581;-81
2022/05/24 12:47:00;;;;;;;8.60;1.90;;;;;;;26.68;43.75;98010.71;104387;1293;25413;-82
2022/05/24 12:49:49;;;;;;;11.30;1.80;;;;;;;26.32;43.53;98009.89;104259;1294;25532;-84
2022/05/24 12:52:59;;;;;;;9.90;2.30;;;;;;;25.88;44.01;98009.63;104065;1296;24321;-83
2022/05/24 12:56:05;;;;;;;8.80;1.80;;;;;;;25.62;43.93;98007.54;104182;1293;22678;-78
2022/05/24 12:59:42;;;;;;;;;;;;;;;;;;;;;
2022/05/24 13:02:53;;;;;;;5.80;2.30;;;;;;;25.63;44.47;98006.70;104640;1294;22551;-84
2022/05/24 13:06:21;;;;;;;7.40;1.80;;;;;;;25.74;44.43;98009.84;105282;1280;22549;-81
2022/05/24 13:09:26;;;;;;;6.20;1.70;;;;;;;25.83;44.58;98013.66;105846;1279;22640;-83
2022/05/24 13:12:44;;;;;;;;;;;;;;;;;;;;;
2022/05/24 13:16:02;;;;;;;;;;;;;;;;;;;;;
2022/05/24 13:19:15;;;;;;;;;;;;;;;;;;;;;
2022/05/24 13:22:19;;;;;;;7.80;2.00;;;;;;;25.71;44.57;98026.83;105998;1276;24306;-84
2022/05/24 13:25:06;;;;;;;6.40;1.90;;;;;;;25.62;44.38;98029.13;105757;1277;22705;-84
2022/05/24 13:28:12;;;;;;;8.60;1.80;;;;;;;25.47;44.49;98034.41;105955;1277;22556;-83
2022/05/24 13:33:56;;;;;;;8.50;1.50;;;;;;;25.21;44.60;98044.01;105828;1279;24189;-83
2022/05/24 13:36:30;;;;;;;7.60;1.60;;;;;;;25.16;44.42;98046.20;105853;1278;22542;-83
2022/05/24 13:39:38;;;;;;;11.20;1.70;;;;;;;25.16;44.65;98047.08;105991;1276;24207;-84
2022/05/24 13:42:17;;;;;;;9.60;2.00;;;;;;;25.24;44.55;98045.78;105798;1278;22562;-81
2022/05/24 13:45:28;;;;;;;13.10;1.90;;;;;;;25.37;44.75;98046.49;105795;1276;24207;-83
2022/05/24 13:48:40;;;;;;;12.40;2.10;;;;;;;25.49;44.68;98047.64;105822;1277;24389;-85
2022/05/24 13:51:36;;;;;;;11.20;2.10;;;;;;;25.38;44.79;98051.91;105697;1278;25252;-84
2022/05/24 13:54:41;;;;;;;10.30;2.00;;;;;;;25.25;44.82;98059.50;105821;1276;22524;-84
2022/05/24 13:57:57;;;;;;;9.90;1.60;;;;;;;25.00;44.96;98063.64;105826;1279;25478;-79
2022/05/24 14:01:06;;;;;;;6.20;1.40;;;;;;;24.71;44.89;98076.20;105171;1288;25234;-88
2022/05/24 14:04:07;;;;;;;4.90;1.50;;;;;;;24.47;45.04;98076.27;105179;1287;22672;-84
2022/05/24 14:06:49;;;;;;;14.70;2.10;;;;;;;24.35;45.09;98080.52;105102;1286;25351;-83
2022/05/24 14:09:20;;;;;;;8.10;1.70;;;;;;;24.41;45.27;98084.23;105236;1285;25247;-81
2022/05/24 14:12:10;;;;;;;6.10;1.50;;;;;;;24.56;45.55;98090.12;105503;1284;23931;-83
2022/05/24 14:14:46;;;;;;;11.50;2.10;;;;;;;24.66;45.43;98096.74;105189;1284;25445;-81
2022/05/24 14:17:32;;;;;;;10.30;1.90;;;;;;;24.48;45.40;98108.48;105300;1285;22547;-81
2022/05/24 14:20:19;;;;;;;10.50;2.10;;;;;;;24.02;45.53;98118.36;105469;1284;26596;-84
2022/05/24 14:22:58;;;;;;;11.90;2.10;;;;;;;23.57;45.82;98125.70;105349;1284;25271;-79